createdAt,value
2022-11-08T00:00:20.602Z,16.19
2022-11-08T00:02:48.441Z,15.96
2022-11-08T00:05:33.536Z,15.95
2022-11-08T00:08:21.957Z,16.24
2022-11-08T00:11:08.600Z,16.25
2022-11-08T00:13:53.868Z,16.29
2022-11-08T00:16:21.813Z,16.30
2022-11-08T00:18:49.514Z,16.20
2022-11-08T00:21:17.194Z,16.15
2022-11-08T00:23:45.081Z,16.20
2022-11-08T00:26:14.183Z,16.13
2022-11-08T00:28:42.028Z,16.16
2022-11-08T00:31:09.752Z,16.15
2022-11-08T00:33:37.614Z,16.31
2022-11-08T00:36:06.224Z,16.43
2022-11-08T00:38:33.926Z,16.13
2022-11-08T00:41:01.669Z,16.37
2022-11-08T00:43:30.708Z,16.37
2022-11-08T00:45:58.434Z,16.29
2022-11-08T00:48:26.188Z,16.36
2022-11-08T00:50:54.040Z,16.38
2022-11-08T00:53:21.729Z,16.19
2022-11-08T00:55:49.437Z,16.28
2022-11-08T00:58:17.451Z,16.51
2022-11-08T01:00:47.051Z,16.58
2022-11-08T01:03:20.713Z,16.64
2022-11-08T01:05:49.576Z,16.67
2022-11-08T01:08:18.900Z,16.57
2022-11-08T01:10:48.561Z,16.36
2022-11-08T01:13:17.293Z,16.59
2022-11-08T01:15:47.376Z,16.70
2022-11-08T01:18:17.231Z,16.67
2022-11-08T01:20:47.014Z,16.53
2022-11-08T01:23:15.263Z,16.64
2022-11-08T01:25:44.939Z,16.81
2022-11-08T01:28:13.731Z,16.70
2022-11-08T01:30:43.267Z,16.67
2022-11-08T01:33:13.231Z,16.75
2022-11-08T01:35:41.808Z,16.93
2022-11-08T01:38:10.888Z,16.94
2022-11-08T01:40:44.225Z,17.08
2022-11-08T01:43:30.205Z,17.08
2022-11-08T01:46:36.236Z,17.24
2022-11-08T01:49:36.922Z,16.92
2022-11-08T01:52:25.800Z,17.28
2022-11-08T01:55:00.100Z,17.43
2022-11-08T01:57:31.815Z,17.49
2022-11-08T02:00:05.135Z,17.11
2022-11-08T02:02:33.598Z,17.32
2022-11-08T02:05:05.251Z,17.20
2022-11-08T02:07:35.197Z,17.33
2022-11-08T02:10:04.618Z,17.44
2022-11-08T02:12:32.613Z,16.91
2022-11-08T02:15:01.048Z,17.05
2022-11-08T02:17:28.740Z,17.11
2022-11-08T02:19:56.507Z,17.40
2022-11-08T02:22:30.051Z,17.05
2022-11-08T02:25:00.289Z,16.91
2022-11-08T02:27:28.141Z,16.60
2022-11-08T02:29:57.517Z,16.44
2022-11-08T02:32:25.341Z,16.37
2022-11-08T02:34:57.525Z,16.10
2022-11-08T02:37:27.375Z,15.79
2022-11-08T02:39:55.055Z,15.78
2022-11-08T02:42:24.177Z,15.81
2022-11-08T02:44:51.873Z,15.97
2022-11-08T02:47:19.624Z,15.75
2022-11-08T02:49:47.342Z,16.05
2022-11-08T02:52:15.396Z,16.18
2022-11-08T02:54:43.107Z,15.85
2022-11-08T02:57:10.809Z,15.47
2022-11-08T02:59:39.855Z,15.80
2022-11-08T03:02:07.958Z,15.71
2022-11-08T03:04:35.760Z,16.17
2022-11-08T03:07:03.431Z,16.26
2022-11-08T03:09:31.141Z,16.22
2022-11-08T03:11:58.825Z,16.15
2022-11-08T03:14:26.573Z,16.02
2022-11-08T03:16:55.604Z,16.05
2022-11-08T03:19:23.369Z,15.83
2022-11-08T03:21:51.036Z,15.56
2022-11-08T03:24:18.751Z,15.69
2022-11-08T03:26:46.433Z,15.77
2022-11-08T03:29:14.198Z,15.77
2022-11-08T03:31:41.872Z,15.13
2022-11-08T03:34:11.887Z,15.16
2022-11-08T03:36:39.591Z,15.31
2022-11-08T03:39:07.306Z,15.02
2022-11-08T03:41:35.183Z,15.01
2022-11-08T03:44:02.911Z,15.33
2022-11-08T03:46:30.697Z,15.20
2022-11-08T03:48:58.389Z,15.00
2022-11-08T03:51:27.502Z,14.98
2022-11-08T03:53:55.176Z,15.12
2022-11-08T03:56:22.884Z,15.34
2022-11-08T03:58:50.634Z,15.20
2022-11-08T04:01:18.517Z,15.00
2022-11-08T04:03:46.416Z,14.74
2022-11-08T04:06:14.187Z,14.55
2022-11-08T04:08:43.237Z,14.91
2022-11-08T04:11:28.201Z,14.67
2022-11-08T04:14:13.644Z,15.10
2022-11-08T04:16:41.468Z,15.27
2022-11-08T04:19:23.181Z,15.43
2022-11-08T04:21:54.074Z,15.06
2022-11-08T04:24:23.800Z,15.24
2022-11-08T04:26:51.504Z,15.50
2022-11-08T04:29:19.214Z,14.97
2022-11-08T04:31:46.900Z,14.93
2022-11-08T04:34:14.644Z,15.09
2022-11-08T04:36:42.495Z,15.34
2022-11-08T04:39:10.265Z,15.27
2022-11-08T04:41:39.307Z,15.22
2022-11-08T04:44:07.168Z,15.45
2022-11-08T04:46:34.900Z,15.55
2022-11-08T04:49:02.547Z,15.19
2022-11-08T04:51:31.660Z,15.57
2022-11-08T04:54:02.340Z,15.66
2022-11-08T04:56:32.204Z,15.89
2022-11-08T04:59:01.942Z,15.98
2022-11-08T05:01:32.296Z,15.52
2022-11-08T05:04:00.181Z,15.70
2022-11-08T05:06:30.122Z,15.74
2022-11-08T05:08:58.988Z,15.73
2022-11-08T05:11:28.897Z,16.09
2022-11-08T05:13:57.355Z,15.72
2022-11-08T05:16:28.404Z,16.19
2022-11-08T05:18:56.504Z,16.29
2022-11-08T05:21:42.557Z,15.80
2022-11-08T05:24:12.130Z,16.16
2022-11-08T05:26:43.076Z,16.27
2022-11-08T05:29:11.283Z,16.39
2022-11-08T05:31:41.595Z,16.32
2022-11-08T05:34:09.564Z,15.90
2022-11-08T05:36:37.358Z,16.10
2022-11-08T05:39:05.214Z,16.30
2022-11-08T05:41:32.957Z,16.61
2022-11-08T05:44:00.652Z,16.38
2022-11-08T05:46:28.417Z,16.28
2022-11-08T05:48:57.788Z,16.38
2022-11-08T05:51:25.523Z,16.42
2022-11-08T05:53:53.272Z,16.38
2022-11-08T05:56:21.025Z,16.21
2022-11-08T05:58:48.751Z,16.28
2022-11-08T06:01:18.630Z,16.34
2022-11-08T06:03:47.181Z,16.13
2022-11-08T06:06:17.842Z,16.09
2022-11-08T06:08:49.944Z,15.64
2022-11-08T06:11:21.422Z,16.26
2022-11-08T06:13:49.450Z,16.32
2022-11-08T06:16:19.011Z,16.38
2022-11-08T06:18:47.067Z,16.42
2022-11-08T06:21:18.227Z,16.42
2022-11-08T06:23:46.044Z,16.23
2022-11-08T06:26:13.976Z,16.23
2022-11-08T06:28:41.841Z,16.34
2022-11-08T06:31:09.685Z,16.40
2022-11-08T06:33:37.390Z,16.13
2022-11-08T06:36:05.468Z,15.92
2022-11-08T06:38:34.584Z,16.31
2022-11-08T06:41:03.444Z,16.23
2022-11-08T06:43:31.141Z,16.49
2022-11-08T06:46:02.045Z,16.43
2022-11-08T06:48:35.045Z,16.42
2022-11-08T06:51:03.496Z,16.37
2022-11-08T06:53:31.261Z,16.30
2022-11-08T06:56:01.140Z,16.41
2022-11-08T06:58:29.263Z,16.67
2022-11-08T07:00:57.169Z,16.32
2022-11-08T07:03:24.899Z,16.51
2022-11-08T07:05:52.568Z,16.53
2022-11-08T07:08:23.724Z,16.45
2022-11-08T07:10:52.362Z,16.48
2022-11-08T07:13:21.830Z,16.07
2022-11-08T07:15:50.079Z,16.48
2022-11-08T07:18:19.249Z,16.26
2022-11-08T07:20:47.269Z,16.37
2022-11-08T07:23:15.429Z,16.43
2022-11-08T07:25:43.273Z,16.33
2022-11-08T07:28:16.504Z,16.41
2022-11-08T07:30:46.427Z,16.60
2022-11-08T07:33:15.098Z,16.33
2022-11-08T07:35:43.059Z,16.56
2022-11-08T07:38:10.783Z,16.42
2022-11-08T07:40:38.469Z,16.53
2022-11-08T07:43:13.552Z,16.52
2022-11-08T07:45:41.567Z,16.36
2022-11-08T07:48:13.457Z,16.50
2022-11-08T07:50:42.748Z,16.57
2022-11-08T07:53:11.160Z,16.71
2022-11-08T07:55:39.790Z,16.90
2022-11-08T07:58:08.071Z,16.70
2022-11-08T08:00:37.942Z,16.83
2022-11-08T08:03:07.022Z,16.88
2022-11-08T08:05:37.963Z,17.00
2022-11-08T08:08:06.076Z,17.13
2022-11-08T08:10:34.316Z,17.09
2022-11-08T08:13:02.633Z,17.09
2022-11-08T08:15:30.335Z,17.06
2022-11-08T08:18:00.819Z,17.16
2022-11-08T08:20:28.644Z,17.01
2022-11-08T08:22:58.685Z,17.16
2022-11-08T08:25:28.032Z,17.29
2022-11-08T08:27:57.465Z,16.77
2022-11-08T08:30:25.803Z,16.28
2022-11-08T08:33:26.957Z,16.84
2022-11-08T08:35:53.504Z,16.84
2022-11-08T08:38:22.952Z,17.42
2022-11-08T08:41:00.394Z,17.64
2022-11-08T08:43:28.883Z,17.50
2022-11-08T08:46:00.430Z,17.45
2022-11-08T08:48:28.201Z,17.45
2022-11-08T08:50:56.238Z,17.44
2022-11-08T08:53:25.403Z,17.46
2022-11-08T08:55:53.364Z,17.09
2022-11-08T08:58:21.734Z,17.39
2022-11-08T09:03:38.017Z,17.34
2022-11-08T09:06:05.976Z,17.40
2022-11-08T09:08:35.106Z,17.84
2022-11-08T09:11:03.129Z,17.64
2022-11-08T09:13:31.807Z,17.24
2022-11-08T09:16:01.383Z,17.38
2022-11-08T09:18:29.133Z,17.22
2022-11-08T09:20:58.159Z,17.14
2022-11-08T09:23:25.837Z,16.93
2022-11-08T09:25:59.196Z,17.00
2022-11-08T09:28:31.026Z,17.52
2022-11-08T09:31:01.595Z,17.59
2022-11-08T09:33:29.816Z,17.25
2022-11-08T09:35:57.600Z,17.49
2022-11-08T09:38:25.376Z,17.47
2022-11-08T09:41:04.355Z,17.42
2022-11-08T09:43:49.200Z,17.70
2022-11-08T09:46:23.435Z,17.31
2022-11-08T09:48:54.000Z,17.49
2022-11-08T09:51:24.301Z,17.50
2022-11-08T09:53:54.876Z,17.72
2022-11-08T09:56:28.618Z,17.86
2022-11-08T09:59:02.126Z,17.92
2022-11-08T10:01:32.744Z,18.00
2022-11-08T10:04:03.864Z,17.70
2022-11-08T10:07:02.090Z,18.09
2022-11-08T10:09:49.810Z,17.73
2022-11-08T10:12:25.217Z,17.54
2022-11-08T10:15:08.424Z,17.50
2022-11-08T10:17:49.027Z,17.53
2022-11-08T10:20:26.639Z,18.19
2022-11-08T10:23:03.333Z,18.23
2022-11-08T10:25:38.128Z,18.38
2022-11-08T10:28:07.665Z,18.61
2022-11-08T10:30:39.406Z,18.67
2022-11-08T10:33:17.408Z,18.80
2022-11-08T10:35:49.419Z,18.43
2022-11-08T10:38:20.545Z,18.60
2022-11-08T10:40:57.294Z,18.42
2022-11-08T10:43:32.565Z,17.90
2022-11-08T10:46:00.352Z,18.26
2022-11-08T10:48:28.078Z,18.53
2022-11-08T10:50:56.575Z,18.54
2022-11-08T10:53:27.958Z,18.43
2022-11-08T10:56:02.207Z,18.72
2022-11-08T10:58:36.992Z,18.83
2022-11-08T11:01:14.087Z,18.20
2022-11-08T11:03:41.768Z,18.07
2022-11-08T11:06:24.830Z,18.73
2022-11-08T11:08:56.033Z,18.61
2022-11-08T11:11:26.864Z,19.27
2022-11-08T11:14:16.534Z,18.57
2022-11-08T11:16:55.632Z,18.53
2022-11-08T11:19:24.681Z,18.80
2022-11-08T11:21:58.404Z,18.63
2022-11-08T11:24:26.345Z,18.78
2022-11-08T11:27:06.161Z,18.74
2022-11-08T11:29:36.204Z,18.35
2022-11-08T11:32:25.692Z,18.57
2022-11-08T11:34:55.959Z,18.48
2022-11-08T11:37:33.868Z,18.80
2022-11-08T11:40:08.811Z,18.61
2022-11-08T11:42:47.294Z,18.74
2022-11-08T11:45:22.779Z,18.88
2022-11-08T11:47:53.586Z,18.56
2022-11-08T11:50:29.005Z,18.55
2022-11-08T11:52:57.405Z,18.32
2022-11-08T11:55:34.023Z,18.63
2022-11-08T11:58:10.431Z,18.98
2022-11-08T12:00:47.953Z,18.82
2022-11-08T12:03:31.533Z,18.03
2022-11-08T12:06:22.349Z,18.90
2022-11-08T12:09:04.210Z,18.65
2022-11-08T12:11:47.716Z,19.11
2022-11-08T12:14:30.059Z,18.89
2022-11-08T12:17:07.680Z,18.78
2022-11-08T12:19:42.655Z,18.48
2022-11-08T12:22:28.472Z,18.51
2022-11-08T12:25:03.326Z,19.03
2022-11-08T12:27:43.208Z,18.58
2022-11-08T12:30:14.336Z,18.58
2022-11-08T12:33:00.452Z,19.10
2022-11-08T12:35:35.601Z,18.61
2022-11-08T12:38:19.105Z,19.00
2022-11-08T12:40:54.937Z,19.21
2022-11-08T12:43:38.718Z,18.75
2022-11-08T12:46:12.931Z,18.66
2022-11-08T12:48:56.425Z,18.57
2022-11-08T12:51:26.722Z,18.65
2022-11-08T12:54:07.160Z,18.94
2022-11-08T12:56:39.745Z,19.34
2022-11-08T12:59:19.594Z,19.11
2022-11-08T13:01:48.139Z,19.11
2022-11-08T13:04:37.136Z,18.69
2022-11-08T13:07:12.902Z,18.75
2022-11-08T13:09:48.561Z,18.78
2022-11-08T13:12:33.534Z,18.50
2022-11-08T13:15:02.658Z,19.26
2022-11-08T13:17:31.856Z,19.11
2022-11-08T13:20:06.110Z,19.64
2022-11-08T13:23:01.221Z,19.99
2022-11-08T13:25:37.474Z,18.64
2022-11-08T13:28:43.131Z,18.92
2022-11-08T13:31:32.159Z,19.01
2022-11-08T13:34:29.173Z,19.01
2022-11-08T13:37:20.870Z,19.24
2022-11-08T13:40:07.221Z,18.59
2022-11-08T13:42:58.417Z,18.73
2022-11-08T13:45:29.975Z,18.29
2022-11-08T13:48:02.964Z,18.72
2022-11-08T13:50:51.428Z,18.30
2022-11-08T13:53:46.957Z,19.02
2022-11-08T13:56:51.063Z,18.59
2022-11-08T13:59:57.391Z,19.20
2022-11-08T14:02:41.699Z,19.22
2022-11-08T14:05:25.845Z,18.77
2022-11-08T14:08:17.385Z,18.79
2022-11-08T14:11:22.397Z,18.97
2022-11-08T14:14:13.464Z,20.00
2022-11-08T14:16:50.110Z,19.41
2022-11-08T14:19:22.445Z,19.19
2022-11-08T14:21:52.782Z,18.86
2022-11-08T14:24:24.789Z,18.82
2022-11-08T14:26:52.952Z,18.49
2022-11-08T14:29:24.853Z,18.95
2022-11-08T14:32:03.132Z,18.33
2022-11-08T14:34:34.505Z,18.63
2022-11-08T14:37:03.660Z,17.72
2022-11-08T14:39:32.908Z,18.10
2022-11-08T14:42:03.057Z,18.42
2022-11-08T14:44:32.339Z,17.81
2022-11-08T14:47:00.241Z,18.55
2022-11-08T14:49:32.904Z,18.53
2022-11-08T14:52:12.808Z,18.73
2022-11-08T14:54:42.035Z,18.49
2022-11-08T14:57:31.398Z,18.66
2022-11-08T15:00:03.691Z,18.41
2022-11-08T15:02:31.891Z,18.24
2022-11-08T15:05:00.063Z,18.41
2022-11-08T15:07:28.102Z,17.98
2022-11-08T15:09:56.260Z,17.36
2022-11-08T15:12:26.011Z,17.58
2022-11-08T15:14:58.576Z,17.75
2022-11-08T15:17:36.736Z,17.78
2022-11-08T15:20:07.995Z,18.18
2022-11-08T15:22:37.241Z,17.60
2022-11-08T15:25:20.846Z,17.52
2022-11-08T15:27:49.156Z,17.89
2022-11-08T15:30:18.757Z,17.47
2022-11-08T15:32:48.333Z,17.14
2022-11-08T15:35:25.555Z,17.86
2022-11-08T15:37:59.582Z,17.53
2022-11-08T15:40:30.500Z,17.93
2022-11-08T15:42:59.678Z,18.07
2022-11-08T15:45:32.077Z,17.53
2022-11-08T15:48:13.692Z,17.62
2022-11-08T15:50:41.523Z,17.49
2022-11-08T15:53:10.261Z,17.43
2022-11-08T15:55:40.825Z,16.88
2022-11-08T15:58:16.009Z,17.00
2022-11-08T16:00:46.761Z,17.34
2022-11-08T16:03:16.068Z,17.44
2022-11-08T16:05:44.255Z,17.24
2022-11-08T16:08:17.012Z,17.19
2022-11-08T16:10:49.324Z,17.53
2022-11-08T16:13:19.837Z,17.05
2022-11-08T16:15:48.097Z,17.06
2022-11-08T16:18:19.801Z,17.75
2022-11-08T16:20:48.084Z,17.81
2022-11-08T16:23:15.991Z,17.90
2022-11-08T16:25:46.388Z,17.96
2022-11-08T16:28:20.673Z,18.09
2022-11-08T16:30:48.747Z,17.94
2022-11-08T16:33:23.889Z,18.04
2022-11-08T16:35:52.965Z,17.31
2022-11-08T16:38:24.799Z,17.51
2022-11-08T16:40:52.716Z,17.45
2022-11-08T16:43:20.430Z,17.72
2022-11-08T16:46:05.032Z,17.61
2022-11-08T16:48:36.976Z,17.76
2022-11-08T16:51:06.505Z,17.65
2022-11-08T16:53:36.685Z,17.13
2022-11-08T16:56:04.559Z,17.62
2022-11-08T16:58:32.285Z,17.67
2022-11-08T17:01:00.084Z,17.45
2022-11-08T17:03:29.640Z,17.35
2022-11-08T17:05:59.654Z,17.36
2022-11-08T17:08:27.490Z,17.44
2022-11-08T17:10:55.845Z,16.95
2022-11-08T17:13:24.104Z,17.28
2022-11-08T17:15:52.188Z,16.60
2022-11-08T17:18:21.695Z,17.02
2022-11-08T17:20:51.484Z,16.66
2022-11-08T17:23:22.234Z,17.07
2022-11-08T17:25:49.992Z,17.12
2022-11-08T17:28:18.116Z,17.02
2022-11-08T17:30:46.130Z,16.95
2022-11-08T17:33:14.582Z,16.52
2022-11-08T17:35:44.312Z,16.76
2022-11-08T17:38:12.480Z,16.68
2022-11-08T17:40:42.621Z,16.01
2022-11-08T17:43:10.542Z,16.33
2022-11-08T17:45:38.286Z,16.22
2022-11-08T17:48:06.133Z,16.32
2022-11-08T17:50:33.856Z,16.16
2022-11-08T17:53:01.586Z,16.50
2022-11-08T17:55:29.324Z,16.21
2022-11-08T17:57:58.836Z,16.03
2022-11-08T18:00:26.537Z,16.09
2022-11-08T18:02:54.263Z,16.04
2022-11-08T18:05:22.104Z,16.17
2022-11-08T18:07:49.862Z,16.01
2022-11-08T18:10:17.784Z,16.15
2022-11-08T18:12:45.456Z,16.26
2022-11-08T18:15:14.512Z,16.47
2022-11-08T18:17:42.348Z,16.05
2022-11-08T18:20:10.929Z,15.88
2022-11-08T18:22:38.796Z,16.28
2022-11-08T18:25:07.114Z,16.09
2022-11-08T18:27:34.813Z,16.53
2022-11-08T18:30:02.598Z,15.94
2022-11-08T18:32:31.657Z,15.86
2022-11-08T18:34:59.364Z,15.83
2022-11-08T18:37:27.084Z,16.25
2022-11-08T18:39:54.840Z,16.16
2022-11-08T18:42:22.521Z,16.29
2022-11-08T18:44:50.210Z,15.96
2022-11-08T18:47:17.967Z,16.27
2022-11-08T18:49:47.070Z,16.14
2022-11-08T18:52:14.788Z,16.10
2022-11-08T18:54:42.921Z,15.84
2022-11-08T18:57:10.622Z,15.56
2022-11-08T18:59:38.392Z,15.60
2022-11-08T19:02:06.246Z,15.48
2022-11-08T19:04:34.006Z,16.08
2022-11-08T19:07:03.207Z,15.68
2022-11-08T19:09:31.355Z,15.89
2022-11-08T19:12:04.582Z,16.15
2022-11-08T19:14:35.319Z,16.01
2022-11-08T19:17:03.085Z,15.71
2022-11-08T19:19:30.811Z,15.82
2022-11-08T19:21:58.516Z,15.84
2022-11-08T19:24:27.716Z,15.72
2022-11-08T19:26:55.535Z,15.93
2022-11-08T19:29:23.284Z,16.09
2022-11-08T19:31:50.970Z,15.90
2022-11-08T19:34:18.914Z,16.09
2022-11-08T19:36:51.306Z,16.19
2022-11-08T19:39:22.809Z,16.17
2022-11-08T19:41:51.946Z,16.40
2022-11-08T19:44:19.677Z,16.15
2022-11-08T19:46:47.415Z,16.32
2022-11-08T19:49:15.172Z,16.39
2022-11-08T19:51:43.045Z,16.48
2022-11-08T19:54:13.149Z,16.41
2022-11-08T19:57:04.089Z,16.38
2022-11-08T19:59:29.974Z,16.22
2022-11-08T20:01:57.857Z,16.02
2022-11-08T20:04:25.688Z,16.18
2022-11-08T20:06:53.500Z,16.04
2022-11-08T20:09:24.637Z,16.14
2022-11-08T20:11:56.061Z,16.09
2022-11-08T20:14:23.759Z,16.05
2022-11-08T20:16:54.100Z,16.12
2022-11-08T20:19:21.938Z,16.37
2022-11-08T20:21:49.744Z,16.00
2022-11-08T20:24:18.796Z,16.32
2022-11-08T20:26:46.548Z,16.39
2022-11-08T20:29:15.128Z,16.59
2022-11-08T20:31:42.956Z,16.60
2022-11-08T20:34:13.156Z,16.56
2022-11-08T20:36:41.799Z,16.63
2022-11-08T20:39:10.403Z,16.53
2022-11-08T20:41:40.213Z,16.54
2022-11-08T20:44:09.005Z,16.55
2022-11-08T20:46:37.660Z,16.00
2022-11-08T20:49:06.100Z,16.33
2022-11-08T20:51:35.856Z,16.60
2022-11-08T20:54:04.443Z,16.84
2022-11-08T20:56:32.276Z,16.60
2022-11-08T20:59:00.010Z,16.59
2022-11-08T21:01:29.645Z,16.00
2022-11-08T21:03:58.249Z,16.54
2022-11-08T21:06:28.126Z,16.48
2022-11-08T21:08:59.926Z,16.42
2022-11-08T21:11:34.316Z,16.22
2022-11-08T21:14:02.467Z,16.68
2022-11-08T21:16:33.321Z,16.38
2022-11-08T21:19:06.267Z,16.59
2022-11-08T21:21:34.305Z,16.28
2022-11-08T21:24:03.336Z,16.48
2022-11-08T21:26:36.161Z,16.72
2022-11-08T21:29:04.308Z,16.56
2022-11-08T21:31:32.573Z,16.59
2022-11-08T21:34:00.716Z,16.51
2022-11-08T21:36:29.110Z,16.77
2022-11-08T21:38:56.899Z,16.71
2022-11-08T21:41:25.974Z,16.58
2022-11-08T21:43:53.645Z,16.64
2022-11-08T21:46:23.868Z,16.61
2022-11-08T21:48:55.406Z,16.52
2022-11-08T21:51:23.717Z,16.69
2022-11-08T21:53:54.918Z,16.44
2022-11-08T21:56:24.035Z,16.31
2022-11-08T21:58:53.687Z,16.11
2022-11-08T22:01:25.648Z,16.04
2022-11-08T22:03:57.484Z,16.11
2022-11-08T22:06:25.271Z,16.04
2022-11-08T22:08:52.975Z,16.10
2022-11-08T22:11:20.728Z,15.99
2022-11-08T22:13:48.518Z,16.02
2022-11-08T22:16:17.577Z,15.69
2022-11-08T22:21:38.939Z,16.16
2022-11-08T22:24:07.165Z,16.23
2022-11-08T22:26:35.167Z,16.13
2022-11-08T22:29:03.775Z,15.89
2022-11-08T22:31:33.227Z,15.44
2022-11-08T22:34:01.464Z,15.93
2022-11-08T22:36:29.237Z,15.99
2022-11-08T22:38:57.167Z,15.96
2022-11-08T22:41:25.163Z,15.61
2022-11-08T22:43:53.315Z,15.50
2022-11-08T22:46:21.013Z,15.80
2022-11-08T22:48:50.293Z,15.48
2022-11-08T22:51:18.172Z,15.69
2022-11-08T22:53:45.911Z,15.80
2022-11-08T22:56:13.727Z,15.77
2022-11-08T22:58:41.548Z,15.89
2022-11-08T23:01:12.906Z,15.76
2022-11-08T23:03:41.192Z,15.83
2022-11-08T23:06:11.081Z,15.89
2022-11-08T23:08:38.936Z,15.36
2022-11-08T23:11:24.225Z,15.31
2022-11-08T23:14:09.584Z,15.17
2022-11-08T23:16:40.333Z,15.39
2022-11-08T23:19:27.596Z,15.48
2022-11-08T23:22:14.664Z,15.48
2022-11-08T23:24:43.527Z,15.48
2022-11-08T23:27:38.750Z,15.52
2022-11-08T23:30:25.692Z,15.41
2022-11-08T23:32:53.958Z,15.46
2022-11-08T23:35:22.383Z,15.21
2022-11-08T23:37:51.416Z,15.23
2022-11-08T23:40:37.829Z,15.38
2022-11-08T23:43:30.194Z,15.50
2022-11-08T23:45:58.529Z,15.63
2022-11-08T23:48:28.011Z,15.65
2022-11-08T23:50:56.469Z,15.54
2022-11-08T23:53:26.138Z,15.69
2022-11-08T23:55:54.601Z,15.67
2022-11-08T23:58:22.764Z,15.61
